createdAt,value
2023-12-09T00:02:23.901Z,78.53
2023-12-09T00:05:26.829Z,77.99
2023-12-09T00:08:31.055Z,78.53
2023-12-09T00:11:33.924Z,78.61
2023-12-09T00:14:36.881Z,78.37
2023-12-09T00:17:39.783Z,78.67
2023-12-09T00:20:42.568Z,78.17
2023-12-09T00:23:49.800Z,78.58
2023-12-09T00:26:52.656Z,78.48
2023-12-09T00:29:55.596Z,78.96
2023-12-09T00:32:58.523Z,78.50
2023-12-09T00:36:01.336Z,77.90
2023-12-09T00:39:06.321Z,78.88
2023-12-09T00:42:09.269Z,78.13
2023-12-09T00:45:12.652Z,78.57
2023-12-09T00:48:15.778Z,78.44
2023-12-09T00:51:18.883Z,78.59
2023-12-09T00:54:23.039Z,79.14
2023-12-09T00:57:26.098Z,78.07
2023-12-09T01:00:28.971Z,78.86
2023-12-09T01:03:31.969Z,78.36
2023-12-09T01:06:35.029Z,78.83
2023-12-09T01:09:39.185Z,78.73
2023-12-09T01:12:42.249Z,77.82
2023-12-09T01:15:45.011Z,78.68
2023-12-09T01:18:48.192Z,78.77
2023-12-09T01:21:51.014Z,79.45
2023-12-09T01:24:55.092Z,79.44
2023-12-09T01:27:57.967Z,78.20
2023-12-09T01:31:00.959Z,77.83
2023-12-09T01:34:04.314Z,78.98
2023-12-09T01:37:07.368Z,79.11
2023-12-09T01:40:16.781Z,79.27
2023-12-09T01:43:19.581Z,79.06
2023-12-09T01:46:23.649Z,79.52
2023-12-09T01:49:26.982Z,79.29
2023-12-09T01:52:30.767Z,79.04
2023-12-09T01:55:35.408Z,78.43
2023-12-09T01:58:39.656Z,78.49
2023-12-09T02:01:42.602Z,78.91
2023-12-09T02:04:45.559Z,78.54
2023-12-09T02:07:48.262Z,79.00
2023-12-09T02:11:02.863Z,79.12
2023-12-09T02:14:09.511Z,79.19
2023-12-09T02:17:17.132Z,78.60
2023-12-09T02:20:20.286Z,78.50
2023-12-09T02:23:24.383Z,78.27
2023-12-09T02:26:28.501Z,78.73
2023-12-09T02:29:41.141Z,78.88
2023-12-09T02:32:46.095Z,79.04
2023-12-09T02:35:51.482Z,78.57
2023-12-09T02:38:56.806Z,78.20
2023-12-09T02:42:00.706Z,78.82
2023-12-09T02:45:03.970Z,78.85
2023-12-09T02:48:07.132Z,78.97
2023-12-09T02:51:10.212Z,78.36
2023-12-09T02:54:14.806Z,78.91
2023-12-09T02:57:17.726Z,79.03
2023-12-09T03:00:20.538Z,79.22
2023-12-09T03:03:23.568Z,78.57
2023-12-09T03:06:26.451Z,78.47
2023-12-09T03:09:30.736Z,79.06
2023-12-09T03:12:33.675Z,78.78
2023-12-09T03:15:36.621Z,79.88
2023-12-09T03:18:39.690Z,79.18
2023-12-09T03:21:42.521Z,78.62
2023-12-09T03:24:46.682Z,78.69
2023-12-09T03:27:49.522Z,78.79
2023-12-09T03:30:52.250Z,78.83
2023-12-09T03:33:56.508Z,79.36
2023-12-09T03:36:59.604Z,79.14
2023-12-09T03:40:11.265Z,79.29
2023-12-09T03:43:14.069Z,78.97
2023-12-09T03:46:17.086Z,78.87
2023-12-09T03:49:20.036Z,78.69
2023-12-09T03:52:22.835Z,78.74
2023-12-09T03:55:26.952Z,79.35
2023-12-09T03:58:29.683Z,80.26
2023-12-09T04:01:32.623Z,79.62
2023-12-09T04:04:35.419Z,79.66
2023-12-09T04:07:38.413Z,80.29
2023-12-09T04:10:42.834Z,79.34
2023-12-09T04:13:45.794Z,79.85
2023-12-09T04:16:48.506Z,79.78
2023-12-09T04:19:53.038Z,80.66
2023-12-09T04:22:55.927Z,80.29
2023-12-09T04:26:00.442Z,79.94
2023-12-09T04:29:04.088Z,80.15
2023-12-09T04:32:07.336Z,80.27
2023-12-09T04:35:10.855Z,80.43
2023-12-09T04:38:13.594Z,81.20
2023-12-09T04:41:17.790Z,80.86
2023-12-09T04:44:20.667Z,80.71
2023-12-09T04:47:23.692Z,80.93
2023-12-09T04:50:26.932Z,80.48
2023-12-09T04:53:29.661Z,80.91
2023-12-09T04:56:33.917Z,80.30
2023-12-09T04:59:36.826Z,80.44
2023-12-09T05:02:39.598Z,80.43
2023-12-09T05:05:42.682Z,80.18
2023-12-09T05:08:45.428Z,80.30
2023-12-09T05:11:49.526Z,80.69
2023-12-09T05:14:52.244Z,80.24
2023-12-09T05:17:55.720Z,80.15
2023-12-09T05:20:58.640Z,80.47
2023-12-09T05:24:01.420Z,79.75
2023-12-09T05:27:06.185Z,79.34
2023-12-09T05:30:10.101Z,79.80
2023-12-09T05:33:12.959Z,79.39
2023-12-09T05:36:16.032Z,80.95
2023-12-09T05:39:18.966Z,80.93
2023-12-09T05:42:23.206Z,80.37
2023-12-09T05:45:29.661Z,80.84
2023-12-09T05:48:34.650Z,81.25
2023-12-09T05:51:37.807Z,80.76
2023-12-09T05:54:40.644Z,81.39
2023-12-09T05:57:45.070Z,80.66
2023-12-09T06:00:48.145Z,80.84
2023-12-09T06:03:50.962Z,80.74
2023-12-09T06:06:54.143Z,80.60
2023-12-09T06:09:56.888Z,80.09
2023-12-09T06:13:01.170Z,80.61
2023-12-09T06:16:04.094Z,81.33
2023-12-09T06:19:06.820Z,80.30
2023-12-09T06:22:09.732Z,80.75
2023-12-09T06:25:12.616Z,81.01
2023-12-09T06:28:16.717Z,80.84
2023-12-09T06:31:19.429Z,80.31
2023-12-09T06:34:22.262Z,79.22
2023-12-09T06:37:25.062Z,79.30
2023-12-09T06:40:28.036Z,79.94
2023-12-09T06:43:33.671Z,80.18
2023-12-09T06:46:39.113Z,80.79
2023-12-09T06:49:41.925Z,80.68
2023-12-09T06:52:45.210Z,79.83
2023-12-09T06:55:47.913Z,79.90
2023-12-09T06:58:52.465Z,79.69
2023-12-09T07:01:58.068Z,79.04
2023-12-09T07:05:00.809Z,79.44
2023-12-09T07:08:04.019Z,79.82
2023-12-09T07:11:07.724Z,79.63
2023-12-09T07:14:11.917Z,79.21
2023-12-09T07:17:14.776Z,78.53
2023-12-09T07:20:17.922Z,79.22
2023-12-09T07:23:20.778Z,79.61
2023-12-09T07:26:23.515Z,79.82
2023-12-09T07:29:29.599Z,79.34
2023-12-09T07:32:33.815Z,80.34
2023-12-09T07:35:36.856Z,80.85
2023-12-09T07:38:39.764Z,79.48
2023-12-09T07:41:44.137Z,79.92
2023-12-09T07:44:48.289Z,80.04
2023-12-09T07:47:51.178Z,80.42
2023-12-09T07:50:53.976Z,80.14
2023-12-09T07:56:59.637Z,80.15
2023-12-09T08:00:04.936Z,79.18
2023-12-09T08:03:07.756Z,79.87
2023-12-09T08:06:11.640Z,80.07
2023-12-09T08:09:14.613Z,80.00
2023-12-09T08:12:17.365Z,79.95
2023-12-09T08:15:21.600Z,78.90
2023-12-09T08:18:24.481Z,78.80
2023-12-09T08:21:27.426Z,78.54
2023-12-09T08:24:30.305Z,78.50
2023-12-09T08:27:33.128Z,78.27
2023-12-09T08:30:37.610Z,78.47
2023-12-09T08:33:41.269Z,79.67
2023-12-09T08:36:44.408Z,79.33
2023-12-09T08:39:48.847Z,79.63
2023-12-09T08:42:51.963Z,79.42
2023-12-09T08:45:56.047Z,79.24
2023-12-09T08:48:58.940Z,79.93
2023-12-09T08:52:01.773Z,79.17
2023-12-09T08:55:04.735Z,79.18
2023-12-09T08:58:07.492Z,78.97
2023-12-09T09:01:13.414Z,79.43
2023-12-09T09:04:17.019Z,80.09
2023-12-09T09:07:20.004Z,80.10
2023-12-09T09:10:24.029Z,78.60
2023-12-09T09:13:29.785Z,78.97
2023-12-09T09:16:34.028Z,78.91
2023-12-09T09:19:36.939Z,78.54
2023-12-09T09:22:47.497Z,79.16
2023-12-09T09:25:52.573Z,78.85
2023-12-09T09:28:56.297Z,78.68
2023-12-09T09:32:00.477Z,79.00
2023-12-09T09:35:04.277Z,78.27
2023-12-09T09:38:07.489Z,79.60
2023-12-09T09:41:17.269Z,79.27
2023-12-09T09:44:23.726Z,78.91
2023-12-09T09:47:30.907Z,77.72
2023-12-09T09:50:40.706Z,77.57
2023-12-09T09:53:52.727Z,77.15
2023-12-09T09:56:59.193Z,76.17
2023-12-09T10:00:02.769Z,77.39
2023-12-09T10:03:07.709Z,77.97
2023-12-09T10:06:12.877Z,76.88
2023-12-09T10:09:16.218Z,77.26
2023-12-09T10:12:19.118Z,76.38
2023-12-09T10:15:22.656Z,77.04
2023-12-09T10:18:27.241Z,76.75
2023-12-09T10:21:30.172Z,77.01
2023-12-09T10:24:33.152Z,77.02
2023-12-09T10:27:36.355Z,78.10
2023-12-09T10:30:39.533Z,77.81
2023-12-09T10:33:47.118Z,78.44
2023-12-09T10:36:50.090Z,78.58
2023-12-09T10:39:54.750Z,78.16
2023-12-09T10:42:58.833Z,77.74
2023-12-09T10:46:01.931Z,76.87
2023-12-09T10:49:07.625Z,77.15
2023-12-09T10:52:11.777Z,77.21
2023-12-09T10:55:15.888Z,77.57
2023-12-09T10:58:20.115Z,78.30
2023-12-09T11:01:23.860Z,76.36
2023-12-09T11:04:34.907Z,77.01
2023-12-09T11:07:41.998Z,76.29
2023-12-09T11:13:56.826Z,75.45
2023-12-09T11:17:01.490Z,75.93
2023-12-09T11:23:16.616Z,74.92
2023-12-09T11:26:31.590Z,75.35
2023-12-09T11:29:35.810Z,73.60
2023-12-09T11:32:38.746Z,74.52
2023-12-09T11:35:47.002Z,72.97
2023-12-09T11:38:52.385Z,74.70
2023-12-09T11:41:58.733Z,74.52
2023-12-09T11:45:05.025Z,74.14
2023-12-09T11:48:11.741Z,74.30
2023-12-09T11:51:17.764Z,75.65
2023-12-09T11:54:21.959Z,75.24
2023-12-09T11:57:24.788Z,71.52
2023-12-09T12:00:29.794Z,71.72
2023-12-09T12:03:34.034Z,73.46
2023-12-09T12:06:38.030Z,72.87
2023-12-09T12:09:46.998Z,72.79
2023-12-09T12:12:51.576Z,73.09
2023-12-09T12:15:56.127Z,73.46
2023-12-09T12:19:02.267Z,73.64
2023-12-09T12:22:06.444Z,74.67
2023-12-09T12:25:11.587Z,75.17
2023-12-09T12:28:18.148Z,72.63
2023-12-09T12:31:22.087Z,74.26
2023-12-09T12:34:25.457Z,74.39
2023-12-09T12:37:30.169Z,73.53
2023-12-09T12:40:45.287Z,73.89
2023-12-09T12:43:54.194Z,74.65
2023-12-09T12:46:57.111Z,75.03
2023-12-09T12:50:00.279Z,75.30
2023-12-09T12:53:04.199Z,74.96
2023-12-09T12:56:09.989Z,75.05
2023-12-09T12:59:14.906Z,76.33
2023-12-09T13:02:23.409Z,76.91
2023-12-09T13:05:26.500Z,75.71
2023-12-09T13:08:29.406Z,74.29
2023-12-09T13:11:33.631Z,75.66
2023-12-09T13:14:36.623Z,74.80
2023-12-09T13:17:40.264Z,74.63
2023-12-09T13:20:48.084Z,76.36
2023-12-09T13:23:51.070Z,75.55
2023-12-09T13:27:00.011Z,74.19
2023-12-09T13:30:05.621Z,74.46
2023-12-09T13:33:08.731Z,75.28
2023-12-09T13:36:13.877Z,73.87
2023-12-09T13:39:17.058Z,73.93
2023-12-09T13:42:21.411Z,74.44
2023-12-09T13:45:25.708Z,73.28
2023-12-09T13:48:29.950Z,73.18
2023-12-09T13:51:33.165Z,74.93
2023-12-09T13:54:36.846Z,73.54
2023-12-09T13:57:41.891Z,74.41
2023-12-09T14:00:46.777Z,74.39
2023-12-09T14:03:54.844Z,75.45
2023-12-09T14:06:58.989Z,74.58
2023-12-09T14:10:02.259Z,74.64
2023-12-09T14:13:09.272Z,75.41
2023-12-09T14:16:12.376Z,75.16
2023-12-09T14:19:15.477Z,76.53
2023-12-09T14:22:18.516Z,77.30
2023-12-09T14:25:24.749Z,76.45
2023-12-09T14:28:31.075Z,76.77
2023-12-09T14:31:33.957Z,77.17
2023-12-09T14:34:36.945Z,76.69
2023-12-09T14:37:45.922Z,77.71
2023-12-09T14:40:51.793Z,78.54
2023-12-09T14:44:03.392Z,77.65
2023-12-09T14:47:08.918Z,78.08
2023-12-09T14:50:14.121Z,78.67
2023-12-09T14:53:20.872Z,78.89
2023-12-09T14:56:23.914Z,78.46
2023-12-09T14:59:30.584Z,78.96
2023-12-09T15:02:34.425Z,78.11
2023-12-09T15:05:37.453Z,78.11
2023-12-09T15:08:42.323Z,78.40
2023-12-09T15:11:45.455Z,78.65
2023-12-09T15:14:50.622Z,78.25
2023-12-09T15:17:57.116Z,78.24
2023-12-09T15:21:03.316Z,78.32
2023-12-09T15:24:07.819Z,78.75
2023-12-09T15:27:14.619Z,78.84
2023-12-09T15:30:20.046Z,79.15
2023-12-09T15:33:28.828Z,79.30
2023-12-09T15:36:32.000Z,79.63
2023-12-09T15:39:40.326Z,79.56
2023-12-09T15:42:43.612Z,79.50
2023-12-09T15:45:48.226Z,79.70
2023-12-09T15:48:51.253Z,80.12
2023-12-09T15:51:55.513Z,79.92
2023-12-09T15:54:58.851Z,79.83
2023-12-09T15:58:02.111Z,79.81
2023-12-09T16:01:06.705Z,79.39
2023-12-09T16:04:09.723Z,78.84
2023-12-09T16:07:13.106Z,78.99
2023-12-09T16:10:16.750Z,79.11
2023-12-09T16:13:24.828Z,78.75
2023-12-09T16:16:29.443Z,79.52
2023-12-09T16:19:32.549Z,79.91
2023-12-09T16:22:35.593Z,79.78
2023-12-09T16:25:38.944Z,78.96
2023-12-09T16:28:43.005Z,79.07
2023-12-09T16:31:47.769Z,80.16
2023-12-09T16:34:50.923Z,79.89
2023-12-09T16:37:53.853Z,79.77
2023-12-09T16:40:56.725Z,79.73
2023-12-09T16:43:59.520Z,79.65
2023-12-09T16:47:05.349Z,79.47
2023-12-09T16:50:11.846Z,80.09
2023-12-09T16:53:21.374Z,80.60
2023-12-09T16:56:28.413Z,80.14
2023-12-09T16:59:33.736Z,80.09
2023-12-09T17:02:39.197Z,80.30
2023-12-09T17:05:44.800Z,80.18
2023-12-09T17:08:49.794Z,78.95
2023-12-09T17:11:53.999Z,79.21
2023-12-09T17:14:56.884Z,79.48
2023-12-09T17:18:01.281Z,79.23
2023-12-09T17:21:04.578Z,79.44
2023-12-09T17:24:07.854Z,78.82
2023-12-09T17:27:11.989Z,77.83
2023-12-09T17:30:17.125Z,77.99
2023-12-09T17:33:23.884Z,78.01
2023-12-09T17:36:28.479Z,78.56
2023-12-09T17:39:33.773Z,78.42
2023-12-09T17:42:39.294Z,77.46
2023-12-09T17:45:43.416Z,78.19
2023-12-09T17:48:49.178Z,77.59
2023-12-09T17:51:52.259Z,77.12
2023-12-09T17:54:55.307Z,77.96
2023-12-09T17:57:58.931Z,78.08
2023-12-09T18:01:05.046Z,78.14
2023-12-09T18:04:09.562Z,77.30
2023-12-09T18:07:12.537Z,77.66
2023-12-09T18:10:18.534Z,76.93
2023-12-09T18:13:24.125Z,78.27
2023-12-09T18:16:29.207Z,77.94
2023-12-09T18:19:33.637Z,76.93
2023-12-09T18:22:37.070Z,77.88
2023-12-09T18:25:42.108Z,77.09
2023-12-09T18:28:45.348Z,76.69
2023-12-09T18:31:48.366Z,77.19
2023-12-09T18:34:55.741Z,76.36
2023-12-09T18:38:04.910Z,75.20
2023-12-09T18:41:10.888Z,75.99
2023-12-09T18:44:16.525Z,75.71
2023-12-09T18:47:21.498Z,75.41
2023-12-09T18:50:25.818Z,75.77
2023-12-09T18:53:28.887Z,75.57
2023-12-09T18:56:31.881Z,75.38
2023-12-09T18:59:34.884Z,75.37
2023-12-09T19:02:39.966Z,74.59
2023-12-09T19:05:49.466Z,73.99
2023-12-09T19:08:54.918Z,74.91
2023-12-09T19:11:58.372Z,75.65
2023-12-09T19:15:01.259Z,75.17
2023-12-09T19:18:07.769Z,75.02
2023-12-09T19:21:16.495Z,74.33
2023-12-09T19:24:19.523Z,74.25
2023-12-09T19:27:22.572Z,73.34
2023-12-09T19:30:25.674Z,74.25
2023-12-09T19:33:29.959Z,74.79
2023-12-09T19:36:34.362Z,74.37
2023-12-09T19:39:37.412Z,72.56
2023-12-09T19:42:40.624Z,73.61
2023-12-09T19:45:43.794Z,74.75
2023-12-09T19:48:46.807Z,74.49
2023-12-09T19:51:51.082Z,74.46
2023-12-09T19:54:54.537Z,73.86
2023-12-09T19:57:58.270Z,73.50
2023-12-09T20:01:02.130Z,74.34
2023-12-09T20:04:05.342Z,74.35
2023-12-09T20:07:09.749Z,75.27
2023-12-09T20:10:13.092Z,74.76
2023-12-09T20:13:17.099Z,74.67
2023-12-09T20:16:19.937Z,73.78
2023-12-09T20:19:25.848Z,74.79
2023-12-09T20:22:30.984Z,73.71
2023-12-09T20:25:34.431Z,74.57
2023-12-09T20:28:37.354Z,73.95
2023-12-09T20:31:40.138Z,74.13
2023-12-09T20:34:43.195Z,75.71
2023-12-09T20:37:48.298Z,74.18
2023-12-09T20:40:51.138Z,73.89
2023-12-09T20:43:54.042Z,73.96
2023-12-09T20:46:56.960Z,74.77
2023-12-09T20:50:00.086Z,74.81
2023-12-09T20:53:06.927Z,73.20
2023-12-09T20:56:17.543Z,75.08
2023-12-09T20:59:20.355Z,74.99
2023-12-09T21:02:24.820Z,76.63
2023-12-09T21:05:27.888Z,75.61
2023-12-09T21:08:32.133Z,75.93
2023-12-09T21:11:38.480Z,76.26
2023-12-09T21:14:41.278Z,76.50
2023-12-09T21:17:44.363Z,77.16
2023-12-09T21:20:47.356Z,76.66
2023-12-09T21:23:51.545Z,76.85
2023-12-09T21:26:54.495Z,77.46
2023-12-09T21:29:57.586Z,77.79
2023-12-09T21:33:01.163Z,77.44
2023-12-09T21:36:04.324Z,76.82
2023-12-09T21:39:09.903Z,77.07
2023-12-09T21:42:12.784Z,76.78
2023-12-09T21:45:15.830Z,77.67
2023-12-09T21:48:18.813Z,78.38
2023-12-09T21:51:22.242Z,78.41
2023-12-09T21:54:26.584Z,78.25
2023-12-09T21:57:29.566Z,77.73
2023-12-09T22:00:32.372Z,78.03
2023-12-09T22:03:35.419Z,77.34
2023-12-09T22:06:38.342Z,77.33
2023-12-09T22:09:42.830Z,77.60
2023-12-09T22:12:47.208Z,76.61
2023-12-09T22:15:50.295Z,77.88
2023-12-09T22:18:53.177Z,77.77
2023-12-09T22:21:56.208Z,78.14
2023-12-09T22:25:00.729Z,77.65
2023-12-09T22:28:04.284Z,77.44
2023-12-09T22:31:09.624Z,76.76
2023-12-09T22:34:13.054Z,77.24
2023-12-09T22:37:16.763Z,77.69
2023-12-09T22:40:21.054Z,77.32
2023-12-09T22:43:24.042Z,77.28
2023-12-09T22:46:28.429Z,77.38
2023-12-09T22:49:31.628Z,76.96
2023-12-09T22:52:34.536Z,77.61
2023-12-09T22:55:38.724Z,77.56
2023-12-09T22:58:41.694Z,76.60
2023-12-09T23:01:46.195Z,76.25
2023-12-09T23:04:49.303Z,77.57
2023-12-09T23:07:52.223Z,77.09
2023-12-09T23:10:56.532Z,77.64
2023-12-09T23:13:59.391Z,76.85
2023-12-09T23:17:02.455Z,77.92
2023-12-09T23:20:06.584Z,77.39
2023-12-09T23:23:09.902Z,77.54
2023-12-09T23:26:14.350Z,77.34
2023-12-09T23:29:17.160Z,77.40
2023-12-09T23:32:20.019Z,77.83
2023-12-09T23:35:22.821Z,76.73
2023-12-09T23:38:25.696Z,77.81
2023-12-09T23:41:30.145Z,76.37
2023-12-09T23:44:32.991Z,77.40
2023-12-09T23:47:35.989Z,76.76
2023-12-09T23:50:38.866Z,77.26
2023-12-09T23:53:41.862Z,77.72
2023-12-09T23:56:46.024Z,76.88
2023-12-09T23:59:48.965Z,78.06
